createdAt,value
2023-01-12T00:02:59.176Z,101395.20
2023-01-12T00:06:04.819Z,101405.40
2023-01-12T00:09:10.498Z,101404.84
2023-01-12T00:12:16.498Z,101406.09
2023-01-12T00:15:17.377Z,101407.37
2023-01-12T00:18:03.339Z,101408.48
2023-01-12T00:20:58.646Z,101414.70
2023-01-12T00:24:04.738Z,101402.63
2023-01-12T00:27:10.966Z,101412.21
2023-01-12T00:30:15.776Z,101404.25
2023-01-12T00:33:22.470Z,101397.80
2023-01-12T00:36:29.494Z,101407.28
2023-01-12T00:39:35.435Z,101416.11
2023-01-12T00:42:58.855Z,101409.14
2023-01-12T00:46:07.444Z,101411.55
2023-01-12T00:49:12.816Z,101411.75
2023-01-12T00:52:31.178Z,101416.97
2023-01-12T00:55:27.434Z,101416.49
2023-01-12T00:58:32.782Z,101407.59
2023-01-12T01:01:38.908Z,101406.85
2023-01-12T01:04:44.662Z,101401.34
2023-01-12T01:07:50.184Z,101388.11
2023-01-12T01:10:55.854Z,101383.69
2023-01-12T01:14:01.330Z,101391.97
2023-01-12T01:17:07.299Z,101385.03
2023-01-12T01:20:12.752Z,101375.50
2023-01-12T01:23:18.407Z,101375.17
2023-01-12T01:26:27.006Z,101372.31
2023-01-12T01:29:33.707Z,101393.61
2023-01-12T01:32:38.833Z,101377.80
2023-01-12T01:35:44.947Z,101397.56
2023-01-12T01:38:49.634Z,101391.14
2023-01-12T01:41:54.810Z,101394.58
2023-01-12T01:45:03.726Z,101400.66
2023-01-12T01:48:07.748Z,101402.42
2023-01-12T01:51:17.647Z,101404.42
2023-01-12T01:54:23.515Z,101414.08
2023-01-12T01:57:29.964Z,101401.27
2023-01-12T02:00:35.769Z,101396.95
2023-01-12T02:03:41.711Z,101389.59
2023-01-12T02:06:47.681Z,101396.28
2023-01-12T02:09:53.941Z,101391.20
2023-01-12T02:13:17.956Z,101390.39
2023-01-12T02:16:33.311Z,101372.67
2023-01-12T02:20:12.912Z,101382.80
2023-01-12T02:24:03.851Z,101385.84
2023-01-12T02:27:42.526Z,101380.19
2023-01-12T02:31:15.320Z,101373.86
2023-01-12T02:34:57.392Z,101364.98
2023-01-12T02:38:36.131Z,101372.15
2023-01-12T02:42:11.755Z,101371.71
2023-01-12T02:45:59.859Z,101365.27
2023-01-12T02:49:24.636Z,101369.31
2023-01-12T02:52:31.683Z,101372.06
2023-01-12T02:55:37.649Z,101364.58
2023-01-12T02:58:43.286Z,101364.06
2023-01-12T03:01:49.008Z,101364.31
2023-01-12T03:04:55.584Z,101370.15
2023-01-12T03:08:18.709Z,101379.67
2023-01-12T03:11:32.597Z,101366.44
2023-01-12T03:14:37.545Z,101364.71
2023-01-12T03:17:57.269Z,101363.91
2023-01-12T03:21:05.346Z,101352.86
2023-01-12T03:24:24.631Z,101363.13
2023-01-12T03:27:53.347Z,101360.66
2023-01-12T03:31:02.864Z,101353.41
2023-01-12T03:34:08.570Z,101356.67
2023-01-12T03:37:46.128Z,101356.47
2023-01-12T03:40:53.900Z,101354.86
2023-01-12T03:44:04.705Z,101344.25
2023-01-12T03:47:18.105Z,101336.87
2023-01-12T03:50:37.470Z,101321.52
2023-01-12T03:53:42.995Z,101332.97
2023-01-12T03:56:51.795Z,101324.05
2023-01-12T03:59:51.441Z,101322.83
2023-01-12T04:03:00.710Z,101324.43
2023-01-12T04:06:06.097Z,101313.53
2023-01-12T04:09:12.093Z,101327.39
2023-01-12T04:12:18.107Z,101323.00
2023-01-12T04:15:24.776Z,101334.89
2023-01-12T04:18:30.258Z,101333.61
2023-01-12T04:21:53.688Z,101322.86
2023-01-12T04:24:59.008Z,101322.22
2023-01-12T04:28:10.512Z,101325.77
2023-01-12T04:31:17.153Z,101323.59
2023-01-12T04:34:22.507Z,101320.73
2023-01-12T04:37:28.636Z,101307.75
2023-01-12T04:40:34.587Z,101325.41
2023-01-12T04:43:43.141Z,101310.03
2023-01-12T04:46:48.572Z,101318.59
2023-01-12T04:49:53.758Z,101307.09
2023-01-12T04:53:00.343Z,101304.52
2023-01-12T04:56:06.513Z,101300.91
2023-01-12T04:59:14.198Z,101304.17
2023-01-12T05:02:12.762Z,101298.84
2023-01-12T05:05:18.526Z,101301.17
2023-01-12T05:08:42.310Z,101306.22
2023-01-12T05:11:48.647Z,101305.47
2023-01-12T05:14:54.613Z,101304.22
2023-01-12T05:18:01.130Z,101312.39
2023-01-12T05:21:06.940Z,101308.79
2023-01-12T05:24:12.707Z,101297.28
2023-01-12T05:27:19.280Z,101295.48
2023-01-12T05:30:26.033Z,101307.17
2023-01-12T05:33:31.948Z,101296.41
2023-01-12T05:36:38.343Z,101296.51
2023-01-12T05:39:44.382Z,101303.41
2023-01-12T05:43:08.705Z,101296.26
2023-01-12T05:46:18.880Z,101292.64
2023-01-12T05:49:25.830Z,101281.34
2023-01-12T05:52:31.509Z,101282.38
2023-01-12T05:55:37.074Z,101278.36
2023-01-12T05:58:43.275Z,101285.52
2023-01-12T06:01:50.518Z,101283.45
2023-01-12T06:04:56.637Z,101275.06
2023-01-12T06:08:02.594Z,101293.23
2023-01-12T06:11:08.227Z,101290.36
2023-01-12T06:14:14.565Z,101287.13
2023-01-12T06:17:13.574Z,101295.36
2023-01-12T06:20:24.186Z,101293.43
2023-01-12T06:23:34.936Z,101295.28
2023-01-12T06:26:37.438Z,101296.21
2023-01-12T06:29:43.407Z,101290.63
2023-01-12T06:32:49.356Z,101301.17
2023-01-12T06:35:55.304Z,101296.72
2023-01-12T06:39:01.136Z,101295.05
2023-01-12T06:42:25.155Z,101289.72
2023-01-12T06:45:30.602Z,101289.16
2023-01-12T06:48:39.001Z,101288.69
2023-01-12T06:51:44.370Z,101287.82
2023-01-12T06:54:43.183Z,101283.03
2023-01-12T06:57:49.522Z,101287.20
2023-01-12T07:00:58.412Z,101287.14
2023-01-12T07:04:03.650Z,101281.87
2023-01-12T07:07:12.304Z,101282.41
2023-01-12T07:10:19.726Z,101287.39
2023-01-12T07:13:19.308Z,101294.09
2023-01-12T07:16:16.474Z,101283.10
2023-01-12T07:19:22.204Z,101279.62
2023-01-12T07:22:27.125Z,101287.91
2023-01-12T07:25:33.141Z,101279.29
2023-01-12T07:28:40.866Z,101276.89
2023-01-12T07:31:48.056Z,101281.21
2023-01-12T07:34:55.711Z,101283.20
2023-01-12T07:38:06.757Z,101284.66
2023-01-12T07:41:18.575Z,101283.02
2023-01-12T07:44:27.111Z,101265.81
2023-01-12T07:47:35.002Z,101281.73
2023-01-12T07:50:44.117Z,101284.30
2023-01-12T07:53:50.538Z,101280.82
2023-01-12T07:56:57.382Z,101292.84
2023-01-12T08:00:03.176Z,101292.49
2023-01-12T08:03:22.540Z,101285.14
2023-01-12T08:06:29.094Z,101278.78
2023-01-12T08:09:39.311Z,101276.84
2023-01-12T08:12:46.788Z,101272.52
2023-01-12T08:15:56.884Z,101275.48
2023-01-12T08:19:21.435Z,101266.88
2023-01-12T08:22:30.742Z,101267.91
2023-01-12T08:25:40.271Z,101272.20
2023-01-12T08:31:32.668Z,101275.11
2023-01-12T08:34:39.568Z,101264.97
2023-01-12T08:37:38.333Z,101257.77
2023-01-12T08:40:24.420Z,101255.19
2023-01-12T08:43:17.766Z,101255.44
2023-01-12T08:46:12.502Z,101253.69
2023-01-12T08:49:25.717Z,101252.62
2023-01-12T08:52:32.622Z,101251.08
2023-01-12T08:55:38.054Z,101235.92
2023-01-12T08:58:43.281Z,101230.00
2023-01-12T09:01:49.253Z,101240.57
2023-01-12T09:04:55.341Z,101236.39
2023-01-12T09:08:01.143Z,101234.83
2023-01-12T09:11:08.455Z,101233.02
2023-01-12T09:14:13.603Z,101230.16
2023-01-12T09:17:21.386Z,101222.61
2023-01-12T09:20:30.070Z,101230.72
2023-01-12T09:23:29.008Z,101226.81
2023-01-12T09:26:38.923Z,101234.20
2023-01-12T09:29:44.086Z,101222.48
2023-01-12T09:32:50.198Z,101217.68
2023-01-12T09:35:55.051Z,101231.87
2023-01-12T09:39:00.613Z,101219.77
2023-01-12T09:42:24.054Z,101214.05
2023-01-12T09:45:53.523Z,101221.13
2023-01-12T09:49:00.139Z,101218.69
2023-01-12T09:52:44.130Z,101218.16
2023-01-12T09:56:08.466Z,101216.81
2023-01-12T09:59:28.726Z,101206.84
2023-01-12T10:02:35.268Z,101203.06
2023-01-12T10:06:11.888Z,101206.22
2023-01-12T10:09:18.917Z,101205.40
2023-01-12T10:12:38.649Z,101193.73
2023-01-12T10:15:57.296Z,101190.86
2023-01-12T10:19:02.649Z,101194.83
2023-01-12T10:22:08.413Z,101186.34
2023-01-12T10:25:13.906Z,101193.02
2023-01-12T10:28:45.976Z,101188.52
2023-01-12T10:31:52.872Z,101190.23
2023-01-12T10:35:05.621Z,101179.56
2023-01-12T10:38:11.696Z,101174.62
2023-01-12T10:41:27.458Z,101168.61
2023-01-12T10:44:33.699Z,101165.91
2023-01-12T10:47:39.472Z,101170.55
2023-01-12T10:50:46.411Z,101171.85
2023-01-12T10:54:12.128Z,101166.48
2023-01-12T10:57:36.578Z,101161.41
2023-01-12T11:00:42.230Z,101166.91
2023-01-12T11:03:50.705Z,101161.97
2023-01-12T11:07:04.802Z,101155.34
2023-01-12T11:10:08.209Z,101154.38
2023-01-12T11:13:19.455Z,101153.84
2023-01-12T11:16:35.204Z,101139.19
2023-01-12T11:19:44.988Z,101147.95
2023-01-12T11:22:43.864Z,101153.84
2023-01-12T11:25:38.940Z,101147.89
2023-01-12T11:28:54.199Z,101150.79
2023-01-12T11:31:59.651Z,101150.17
2023-01-12T11:35:11.726Z,101149.10
2023-01-12T11:38:26.455Z,101148.56
2023-01-12T11:41:46.058Z,101141.70
2023-01-12T11:45:00.255Z,101152.75
2023-01-12T11:48:09.309Z,101143.68
2023-01-12T11:51:16.289Z,101133.80
2023-01-12T11:54:24.078Z,101123.72
2023-01-12T11:57:48.482Z,101131.87
2023-01-12T12:01:07.909Z,101118.02
2023-01-12T12:04:46.479Z,101121.44
2023-01-12T12:08:11.762Z,101123.92
2023-01-12T12:11:28.169Z,101116.45
2023-01-12T12:14:51.935Z,101119.89
2023-01-12T12:18:06.030Z,101111.12
2023-01-12T12:21:48.199Z,101125.55
2023-01-12T12:25:16.201Z,101131.94
2023-01-12T12:28:53.913Z,101136.45
2023-01-12T12:32:46.388Z,101133.97
2023-01-12T12:36:10.476Z,101127.57
2023-01-12T12:39:43.332Z,101130.32
2023-01-12T12:43:46.615Z,101133.28
2023-01-12T12:47:00.800Z,101146.53
2023-01-12T12:50:07.616Z,101145.94
2023-01-12T12:53:35.851Z,101144.96
2023-01-12T12:56:41.650Z,101143.25
2023-01-12T12:59:58.070Z,101135.76
2023-01-12T13:03:09.815Z,101142.10
2023-01-12T13:06:44.028Z,101142.05
2023-01-12T13:09:50.906Z,101137.70
2023-01-12T13:12:56.812Z,101130.59
2023-01-12T13:16:02.479Z,101124.56
2023-01-12T13:19:13.690Z,101122.09
2023-01-12T13:22:36.956Z,101118.59
2023-01-12T13:25:41.711Z,101127.59
2023-01-12T13:28:47.217Z,101130.48
2023-01-12T13:31:52.834Z,101137.40
2023-01-12T13:34:58.523Z,101135.16
2023-01-12T13:38:20.340Z,101132.99
2023-01-12T13:42:09.006Z,101138.02
2023-01-12T13:45:15.177Z,101132.04
2023-01-12T13:48:20.717Z,101132.04
2023-01-12T13:51:36.131Z,101130.66
2023-01-12T13:54:41.424Z,101129.20
2023-01-12T13:57:48.287Z,101131.58
2023-01-12T14:00:55.423Z,101140.45
2023-01-12T14:04:22.388Z,101135.76
2023-01-12T14:07:36.275Z,101128.67
2023-01-12T14:11:19.826Z,101130.36
2023-01-12T14:15:02.505Z,101140.34
2023-01-12T14:18:12.696Z,101131.72
2023-01-12T14:21:17.459Z,101136.08
2023-01-12T14:24:34.323Z,101128.52
2023-01-12T14:27:39.831Z,101126.56
2023-01-12T14:30:45.555Z,101128.30
2023-01-12T14:33:45.735Z,101128.77
2023-01-12T14:36:59.883Z,101125.84
2023-01-12T14:40:04.523Z,101125.27
2023-01-12T14:43:27.747Z,101137.20
2023-01-12T14:46:48.246Z,101132.47
2023-01-12T14:49:53.651Z,101135.16
2023-01-12T14:53:00.690Z,101137.62
2023-01-12T14:56:05.917Z,101140.24
2023-01-12T14:59:21.342Z,101132.53
2023-01-12T15:02:36.318Z,101133.36
2023-01-12T15:05:44.280Z,101136.44
2023-01-12T15:08:51.229Z,101134.16
2023-01-12T15:11:57.203Z,101131.94
2023-01-12T15:15:02.926Z,101134.34
2023-01-12T15:18:27.347Z,101142.14
2023-01-12T15:21:50.820Z,101141.64
2023-01-12T15:25:15.253Z,101132.95
2023-01-12T15:28:22.200Z,101136.38
2023-01-12T15:31:37.767Z,101138.54
2023-01-12T15:34:44.438Z,101134.17
2023-01-12T15:37:49.701Z,101141.65
2023-01-12T15:40:57.622Z,101146.28
2023-01-12T15:44:02.472Z,101135.14
2023-01-12T15:47:07.929Z,101130.12
2023-01-12T15:50:12.738Z,101147.16
2023-01-12T15:53:19.942Z,101138.58
2023-01-12T15:56:20.767Z,101134.64
2023-01-12T15:59:26.426Z,101137.73
2023-01-12T16:02:37.037Z,101141.45
2023-01-12T16:05:42.279Z,101150.12
2023-01-12T16:08:49.518Z,101148.78
2023-01-12T16:11:55.820Z,101138.54
2023-01-12T16:15:03.431Z,101137.00
2023-01-12T16:18:08.895Z,101131.25
2023-01-12T16:21:15.193Z,101130.61
2023-01-12T16:24:20.086Z,101130.39
2023-01-12T16:27:26.771Z,101132.98
2023-01-12T16:30:33.470Z,101133.83
2023-01-12T16:33:40.177Z,101134.95
2023-01-12T16:36:46.308Z,101122.58
2023-01-12T16:39:53.192Z,101120.66
2023-01-12T16:42:58.681Z,101121.41
2023-01-12T16:46:05.543Z,101121.34
2023-01-12T16:49:10.678Z,101115.25
2023-01-12T16:52:18.208Z,101109.94
2023-01-12T16:55:24.294Z,101110.34
2023-01-12T16:58:29.792Z,101108.88
2023-01-12T17:01:37.169Z,101097.05
2023-01-12T17:04:44.551Z,101103.06
2023-01-12T17:07:50.003Z,101096.99
2023-01-12T17:10:56.709Z,101094.13
2023-01-12T17:14:10.331Z,101091.13
2023-01-12T17:17:18.577Z,101084.20
2023-01-12T17:20:27.088Z,101078.77
2023-01-12T17:23:34.021Z,101084.77
2023-01-12T17:26:40.114Z,101075.00
2023-01-12T17:29:45.899Z,101074.28
2023-01-12T17:32:51.292Z,101074.23
2023-01-12T17:35:57.076Z,101079.14
2023-01-12T17:39:02.854Z,101074.78
2023-01-12T17:42:26.024Z,101081.33
2023-01-12T17:45:32.632Z,101084.51
2023-01-12T17:48:31.851Z,101082.09
2023-01-12T17:51:38.919Z,101080.64
2023-01-12T17:54:44.999Z,101083.23
2023-01-12T17:57:51.152Z,101086.92
2023-01-12T18:00:56.752Z,101080.97
2023-01-12T18:04:03.383Z,101083.73
2023-01-12T18:07:02.977Z,101076.47
2023-01-12T18:10:09.393Z,101088.36
2023-01-12T18:13:15.415Z,101081.20
2023-01-12T18:16:23.285Z,101082.05
2023-01-12T18:19:29.604Z,101086.91
2023-01-12T18:22:36.234Z,101080.92
2023-01-12T18:25:42.814Z,101085.56
2023-01-12T18:28:47.809Z,101080.72
2023-01-12T18:31:54.090Z,101079.47
2023-01-12T18:34:59.467Z,101077.22
2023-01-12T18:38:05.905Z,101078.72
2023-01-12T18:41:29.738Z,101077.08
2023-01-12T18:44:35.382Z,101076.12
2023-01-12T18:47:59.297Z,101078.40
2023-01-12T18:51:26.835Z,101075.37
2023-01-12T18:54:32.489Z,101074.48
2023-01-12T18:57:40.207Z,101078.28
2023-01-12T19:00:45.154Z,101079.67
2023-01-12T19:03:51.603Z,101083.88
2023-01-12T19:07:01.744Z,101073.92
2023-01-12T19:10:08.028Z,101080.34
2023-01-12T19:13:31.266Z,101076.34
2023-01-12T19:16:54.536Z,101077.28
2023-01-12T19:20:00.724Z,101075.94
2023-01-12T19:23:23.954Z,101082.59
2023-01-12T19:26:50.361Z,101074.66
2023-01-12T19:29:57.225Z,101077.42
2023-01-12T19:33:02.754Z,101074.09
2023-01-12T19:36:09.156Z,101074.25
2023-01-12T19:39:16.314Z,101066.25
2023-01-12T19:42:39.224Z,101068.45
2023-01-12T19:45:44.778Z,101073.62
2023-01-12T19:48:51.836Z,101063.13
2023-01-12T19:51:58.506Z,101060.43
2023-01-12T19:55:03.498Z,101060.98
2023-01-12T19:58:11.679Z,101060.13
2023-01-12T20:01:17.942Z,101059.47
2023-01-12T20:04:24.155Z,101050.47
2023-01-12T20:07:29.023Z,101060.67
2023-01-12T20:10:38.867Z,101053.87
2023-01-12T20:13:46.134Z,101045.91
2023-01-12T20:16:53.480Z,101046.39
2023-01-12T20:19:59.012Z,101047.45
2023-01-12T20:23:05.116Z,101036.28
2023-01-12T20:26:10.379Z,101044.25
2023-01-12T20:29:16.132Z,101052.30
2023-01-12T20:32:21.647Z,101045.47
2023-01-12T20:35:30.398Z,101043.21
2023-01-12T20:38:28.767Z,101039.38
2023-01-12T20:41:34.523Z,101043.97
2023-01-12T20:44:40.128Z,101035.82
2023-01-12T20:47:46.689Z,101039.95
2023-01-12T20:50:53.551Z,101044.53
2023-01-12T20:54:00.727Z,101041.81
2023-01-12T20:57:07.635Z,101039.53
2023-01-12T21:00:13.975Z,101036.84
2023-01-12T21:03:19.439Z,101041.70
2023-01-12T21:06:28.797Z,101037.94
2023-01-12T21:09:34.304Z,101035.92
2023-01-12T21:12:40.214Z,101038.59
2023-01-12T21:15:46.197Z,101037.47
2023-01-12T21:18:52.173Z,101041.11
2023-01-12T21:21:59.570Z,101038.61
2023-01-12T21:25:06.070Z,101039.69
2023-01-12T21:28:11.799Z,101032.17
2023-01-12T21:31:18.729Z,101031.48
2023-01-12T21:34:24.238Z,101036.86
2023-01-12T21:37:29.885Z,101042.06
2023-01-12T21:40:35.110Z,101024.87
2023-01-12T21:43:41.773Z,101028.98
2023-01-12T21:46:47.569Z,101024.09
2023-01-12T21:49:54.428Z,101016.08
2023-01-12T21:53:01.782Z,101017.28
2023-01-12T21:56:12.531Z,101013.02
2023-01-12T21:59:19.178Z,101014.01
2023-01-12T22:02:26.131Z,101012.18
2023-01-12T22:05:34.298Z,101012.27
2023-01-12T22:08:40.114Z,101013.42
2023-01-12T22:11:45.741Z,101003.52
2023-01-12T22:14:37.672Z,101006.01
2023-01-12T22:17:44.533Z,101006.40
2023-01-12T22:20:50.396Z,101008.31
2023-01-12T22:23:55.491Z,101007.17
2023-01-12T22:27:02.120Z,101002.84
2023-01-12T22:30:08.328Z,101002.84
2023-01-12T22:33:14.335Z,100997.08
2023-01-12T22:36:20.826Z,100997.66
2023-01-12T22:39:29.405Z,100991.00
2023-01-12T22:42:52.808Z,100999.20
2023-01-12T22:46:01.242Z,101001.58
2023-01-12T22:49:12.204Z,101000.90
2023-01-12T22:52:18.518Z,101001.21
2023-01-12T22:55:23.831Z,100990.44
2023-01-12T22:58:29.575Z,100994.30
2023-01-12T23:01:37.596Z,100994.58
2023-01-12T23:04:43.764Z,100996.30
2023-01-12T23:07:42.184Z,100994.58
2023-01-12T23:10:34.885Z,100992.44
2023-01-12T23:13:40.851Z,100998.60
2023-01-12T23:16:45.867Z,100986.67
2023-01-12T23:19:52.095Z,100996.57
2023-01-12T23:22:58.587Z,100988.30
2023-01-12T23:26:04.215Z,100992.80
2023-01-12T23:29:12.676Z,100995.02
2023-01-12T23:32:17.556Z,100985.77
2023-01-12T23:35:24.341Z,100984.34
2023-01-12T23:38:29.935Z,100987.98
2023-01-12T23:41:37.059Z,100984.05
2023-01-12T23:44:42.521Z,100988.76
2023-01-12T23:47:47.693Z,100990.48
2023-01-12T23:50:53.773Z,100988.47
2023-01-12T23:53:59.677Z,100984.34
2023-01-12T23:57:07.225Z,100990.83
